Time;durP1;ratioP1;P1;durP2;ratioP2;P2;SDS_P1;SDS_P2;PMS_P1;PMS_P2;Temp;Humidity;BMP_temperature;BMP_pressure;BME280_temperature;BME280_humidity;BME280_pressure;Samples;Min_cycle;Max_cycle;Signal;HPM_P1;HPM_P2
2022/10/09 00:01:57;;;;;;;10.57;5.57;;;;;;;;;;5092157;28;20506;-82
2022/10/09 00:04:24;;;;;;;11.07;5.95;;;;;;;;;;5091824;28;20422;-83
2022/10/09 00:06:51;;;;;;;5.95;5.38;;;;;;;;;;5091850;28;20102;-82
2022/10/09 00:09:18;;;;;;;9.07;6.50;;;;;;;;;;5091188;28;20055;-82
2022/10/09 00:11:46;;;;;;;13.18;6.53;;;;;;;;;;5091714;28;20055;-82
2022/10/09 00:14:13;;;;;;;11.57;6.45;;;;;;;;;;5091570;28;20052;-83
2022/10/09 00:16:40;;;;;;;10.50;5.63;;;;;;;;;;5089883;28;20050;-83
2022/10/09 00:19:07;;;;;;;13.70;6.47;;;;;;;;;;5091178;28;20051;-82
2022/10/09 00:21:34;;;;;;;10.40;5.90;;;;;;;;;;5089288;28;20482;-82
2022/10/09 00:24:03;;;;;;;7.05;5.43;;;;;;;;;;5091194;28;20044;-83
2022/10/09 00:26:30;;;;;;;13.45;6.53;;;;;;;;;;5093736;28;20048;-82
2022/10/09 00:28:57;;;;;;;9.55;5.95;;;;;;;;;;5092154;28;20054;-82
2022/10/09 00:31:24;;;;;;;9.10;5.70;;;;;;;;;;5089931;28;20400;-82
2022/10/09 00:33:51;;;;;;;11.70;6.15;;;;;;;;;;5094165;28;20136;-83
2022/10/09 00:36:20;;;;;;;8.75;6.95;;;;;;;;;;5094359;28;20142;-82
2022/10/09 00:38:48;;;;;;;11.27;6.97;;;;;;;;;;5093880;28;20056;-82
2022/10/09 00:41:20;;;;;;;14.98;7.65;;;;;;;;;;5093546;28;20051;-82
2022/10/09 00:44:00;;;;;;;11.82;6.20;;;;;;;;;;5092794;28;20051;-81
2022/10/09 00:46:47;;;;;;;11.20;6.15;;;;;;;;;;5092100;28;20048;-82
2022/10/09 00:49:19;;;;;;;18.30;6.18;;;;;;;;;;5091959;28;20048;-82
2022/10/09 00:51:48;;;;;;;8.85;5.50;;;;;;;;;;5091476;28;20422;-82
2022/10/09 00:54:16;;;;;;;9.55;5.95;;;;;;;;;;5093126;28;20524;-82
2022/10/09 00:56:43;;;;;;;13.27;5.90;;;;;;;;;;5090689;28;20112;-83
2022/10/09 00:59:11;;;;;;;8.75;5.05;;;;;;;;;;5091146;28;20054;-82
2022/10/09 01:01:40;;;;;;;5.25;4.55;;;;;;;;;;5090037;28;20123;-82
2022/10/09 01:04:07;;;;;;;5.22;4.65;;;;;;;;;;5090187;28;20419;-83
2022/10/09 01:06:44;;;;;;;4.90;4.50;;;;;;;;;;5087651;28;20137;-82
2022/10/09 01:09:14;;;;;;;6.25;5.10;;;;;;;;;;5076138;28;20052;-82
2022/10/09 01:12:04;;;;;;;5.75;5.18;;;;;;;;;;5077589;28;20063;-82
2022/10/09 01:14:31;;;;;;;6.85;5.20;;;;;;;;;;5076958;28;20062;-82
2022/10/09 01:17:11;;;;;;;10.18;6.53;;;;;;;;;;5075399;28;20411;-82
2022/10/09 01:19:50;;;;;;;9.27;6.72;;;;;;;;;;5076814;28;20138;-83
2022/10/09 01:22:37;;;;;;;9.75;6.28;;;;;;;;;;5074587;28;20045;-82
2022/10/09 01:25:08;;;;;;;7.95;5.68;;;;;;;;;;5075532;28;20056;-82
2022/10/09 01:27:37;;;;;;;8.88;6.68;;;;;;;;;;5076230;28;20051;-81
2022/10/09 01:30:13;;;;;;;9.23;5.90;;;;;;;;;;5076615;28;20048;-82
2022/10/09 01:32:42;;;;;;;8.93;6.40;;;;;;;;;;5076003;28;20521;-81
2022/10/09 01:35:11;;;;;;;10.27;6.07;;;;;;;;;;5074610;28;20412;-82
2022/10/09 01:37:40;;;;;;;9.68;5.72;;;;;;;;;;5074617;28;20049;-82
2022/10/09 01:40:07;;;;;;;10.18;6.28;;;;;;;;;;5075720;28;20509;-82
2022/10/09 01:42:35;;;;;;;10.75;6.97;;;;;;;;;;5075896;28;20400;-82
2022/10/09 01:45:02;;;;;;;8.82;6.20;;;;;;;;;;5074472;28;20052;-82
2022/10/09 01:47:29;;;;;;;14.65;6.30;;;;;;;;;;5085895;28;20586;-82
2022/10/09 01:50:02;;;;;;;9.07;6.50;;;;;;;;;;5095510;28;20103;-82
2022/10/09 01:52:48;;;;;;;12.20;7.43;;;;;;;;;;5081184;28;20048;-83
2022/10/09 01:55:26;;;;;;;7.30;5.60;;;;;;;;;;5079612;28;20056;-82
2022/10/09 01:57:57;;;;;;;7.85;5.60;;;;;;;;;;5079113;28;20040;-82
2022/10/09 02:00:24;;;;;;;7.53;6.13;;;;;;;;;;5079293;28;20044;-83
2022/10/09 02:02:51;;;;;;;8.02;5.70;;;;;;;;;;5079421;28;20040;-83
2022/10/09 02:05:21;;;;;;;10.02;5.88;;;;;;;;;;5078529;28;20094;-82
2022/10/09 02:07:49;;;;;;;7.82;5.50;;;;;;;;;;5078290;28;20048;-82
2022/10/09 02:10:17;;;;;;;6.47;5.03;;;;;;;;;;5076455;28;20059;-81
2022/10/09 02:12:46;;;;;;;6.75;5.10;;;;;;;;;;5073613;28;20044;-82
2022/10/09 02:15:14;;;;;;;7.55;5.43;;;;;;;;;;5073402;28;20487;-82
2022/10/09 02:17:46;;;;;;;5.25;4.78;;;;;;;;;;5073031;28;20045;-82
2022/10/09 02:20:24;;;;;;;5.50;4.53;;;;;;;;;;5072437;28;20499;-82
2022/10/09 02:22:52;;;;;;;5.57;5.07;;;;;;;;;;5074473;28;20050;-82
2022/10/09 02:25:20;;;;;;;6.88;6.00;;;;;;;;;;5074246;28;20422;-81
2022/10/09 02:27:47;;;;;;;6.78;5.72;;;;;;;;;;5072782;28;20054;-82
2022/10/09 02:30:15;;;;;;;6.85;5.88;;;;;;;;;;5073063;28;20513;-82
2022/10/09 02:32:42;;;;;;;7.75;5.82;;;;;;;;;;5074148;28;20044;-82
2022/10/09 02:35:09;;;;;;;8.68;5.75;;;;;;;;;;5072560;28;20418;-81
2022/10/09 02:37:36;;;;;;;7.57;5.45;;;;;;;;;;5073550;28;20396;-81
2022/10/09 02:40:04;;;;;;;6.22;5.60;;;;;;;;;;5072804;28;20045;-82
2022/10/09 02:42:36;;;;;;;10.13;4.72;;;;;;;;;;5072589;28;20052;-82
2022/10/09 02:45:04;;;;;;;7.25;5.13;;;;;;;;;;5072618;28;20044;-82
2022/10/09 02:47:31;;;;;;;6.55;5.50;;;;;;;;;;5072405;28;20578;-82
2022/10/09 02:49:58;;;;;;;7.45;5.43;;;;;;;;;;5073435;28;20055;-81
2022/10/09 02:52:25;;;;;;;9.43;6.13;;;;;;;;;;5073291;28;20051;-82
2022/10/09 02:54:52;;;;;;;7.72;5.70;;;;;;;;;;5073438;28;20048;-82
2022/10/09 02:57:19;;;;;;;5.97;5.43;;;;;;;;;;5073146;28;20049;-82
2022/10/09 02:59:46;;;;;;;6.72;5.35;;;;;;;;;;5072214;28;20052;-82
2022/10/09 03:02:14;;;;;;;8.35;5.45;;;;;;;;;;5072123;28;20047;-81
2022/10/09 03:04:41;;;;;;;13.85;6.53;;;;;;;;;;5072928;28;20054;-82
2022/10/09 03:07:08;;;;;;;9.65;6.55;;;;;;;;;;5073167;28;20526;-81
2022/10/09 03:09:35;;;;;;;12.38;6.50;;;;;;;;;;5071987;28;20058;-82
2022/10/09 03:12:02;;;;;;;9.93;6.07;;;;;;;;;;5071916;28;20538;-81
2022/10/09 03:14:29;;;;;;;8.57;6.20;;;;;;;;;;5071645;28;20057;-82
2022/10/09 03:16:56;;;;;;;9.00;6.43;;;;;;;;;;5072019;28;20055;-80
2022/10/09 03:19:24;;;;;;;7.50;6.50;;;;;;;;;;5071378;28;20044;-81
2022/10/09 03:21:51;;;;;;;8.15;5.90;;;;;;;;;;5072338;28;20049;-81
2022/10/09 03:24:18;;;;;;;5.95;5.35;;;;;;;;;;5073662;28;20056;-82
2022/10/09 03:26:45;;;;;;;7.72;5.53;;;;;;;;;;5074166;28;20059;-82
2022/10/09 03:29:12;;;;;;;7.43;5.18;;;;;;;;;;5074498;28;20055;-82
2022/10/09 03:31:39;;;;;;;9.73;4.82;;;;;;;;;;5073554;28;20426;-82
2022/10/09 03:34:22;;;;;;;6.43;5.00;;;;;;;;;;5073689;28;20082;-83
2022/10/09 03:36:49;;;;;;;6.93;5.25;;;;;;;;;;5073295;28;20048;-83
2022/10/09 03:39:16;;;;;;;9.05;5.13;;;;;;;;;;5075108;28;20062;-82
2022/10/09 03:41:43;;;;;;;6.75;4.95;;;;;;;;;;5073701;28;20051;-82
2022/10/09 03:44:10;;;;;;;7.90;5.40;;;;;;;;;;5074296;28;20049;-82
2022/10/09 03:46:38;;;;;;;8.60;5.22;;;;;;;;;;5073006;28;20055;-82
2022/10/09 03:49:05;;;;;;;8.43;5.35;;;;;;;;;;5074715;28;20053;-82
2022/10/09 03:51:32;;;;;;;6.95;5.07;;;;;;;;;;5073443;28;20056;-82
2022/10/09 03:53:59;;;;;;;11.32;5.90;;;;;;;;;;5072925;28;20056;-83
2022/10/09 03:56:26;;;;;;;8.88;6.05;;;;;;;;;;5072709;28;20058;-82
2022/10/09 03:58:53;;;;;;;8.05;5.20;;;;;;;;;;5072481;28;20049;-82
2022/10/09 04:01:20;;;;;;;6.88;4.95;;;;;;;;;;5074443;28;20044;-82
2022/10/09 04:03:48;;;;;;;7.43;5.55;;;;;;;;;;5073268;28;20055;-82
2022/10/09 04:06:15;;;;;;;10.02;6.07;;;;;;;;;;5073725;28;20431;-82
2022/10/09 04:08:42;;;;;;;6.72;5.40;;;;;;;;;;5070816;22;20047;-80
2022/10/09 04:11:09;;;;;;;7.25;5.43;;;;;;;;;;5053569;28;20041;-82
2022/10/09 04:13:36;;;;;;;8.95;5.35;;;;;;;;;;5053149;28;20056;-82
2022/10/09 04:16:04;;;;;;;8.00;5.10;;;;;;;;;;5052833;28;20056;-82
2022/10/09 04:18:31;;;;;;;9.90;5.75;;;;;;;;;;5053389;28;20060;-82
2022/10/09 04:20:58;;;;;;;9.15;5.57;;;;;;;;;;5053278;28;20052;-82
2022/10/09 04:23:26;;;;;;;5.70;5.03;;;;;;;;;;5054058;28;20045;-81
2022/10/09 04:25:54;;;;;;;5.47;4.95;;;;;;;;;;5052264;28;20168;-80
2022/10/09 04:28:22;;;;;;;8.35;5.13;;;;;;;;;;5052643;28;20511;-82
2022/10/09 04:30:49;;;;;;;7.05;4.97;;;;;;;;;;5052818;28;20049;-81
2022/10/09 04:33:16;;;;;;;9.85;5.38;;;;;;;;;;5053929;28;20048;-82
2022/10/09 04:35:44;;;;;;;6.53;5.40;;;;;;;;;;5052604;28;20041;-82
2022/10/09 04:38:12;;;;;;;6.07;5.22;;;;;;;;;;5052202;28;20509;-81
2022/10/09 04:40:40;;;;;;;7.15;5.90;;;;;;;;;;5053187;28;20091;-82
2022/10/09 04:43:07;;;;;;;9.05;6.40;;;;;;;;;;5054931;28;20085;-82
2022/10/09 04:45:38;;;;;;;9.70;5.97;;;;;;;;;;5056801;28;20049;-82
2022/10/09 04:48:05;;;;;;;8.35;7.13;;;;;;;;;;5055443;28;20060;-82
2022/10/09 04:50:32;;;;;;;17.10;6.50;;;;;;;;;;5054966;28;20049;-82
2022/10/09 04:52:59;;;;;;;10.35;7.28;;;;;;;;;;5055082;28;20464;-81
2022/10/09 04:55:26;;;;;;;8.77;6.43;;;;;;;;;;5056164;28;20127;-82
2022/10/09 04:57:54;;;;;;;6.75;6.10;;;;;;;;;;5055747;28;20045;-82
2022/10/09 05:00:21;;;;;;;8.60;6.43;;;;;;;;;;5054542;28;20427;-82
2022/10/09 05:02:48;;;;;;;8.82;5.43;;;;;;;;;;5054790;28;20526;-82
2022/10/09 05:05:15;;;;;;;9.35;5.72;;;;;;;;;;5055654;28;20048;-80
2022/10/09 05:07:43;;;;;;;8.18;6.40;;;;;;;;;;5054491;28;20056;-81
2022/10/09 05:10:10;;;;;;;7.00;5.57;;;;;;;;;;5055465;28;20049;-82
2022/10/09 05:12:37;;;;;;;10.25;6.75;;;;;;;;;;5054675;28;20083;-82
2022/10/09 05:15:04;;;;;;;10.80;6.88;;;;;;;;;;5054492;28;20052;-82
2022/10/09 05:17:31;;;;;;;10.55;7.35;;;;;;;;;;5055276;28;20045;-81
2022/10/09 05:19:58;;;;;;;10.30;7.97;;;;;;;;;;5055110;28;20045;-81
2022/10/09 05:22:25;;;;;;;16.27;10.13;;;;;;;;;;5055297;28;20055;-81
2022/10/09 05:24:53;;;;;;;29.38;18.73;;;;;;;;;;5053956;28;20052;-82
2022/10/09 05:27:20;;;;;;;14.55;11.25;;;;;;;;;;5059835;28;20486;-82
2022/10/09 05:29:47;;;;;;;17.55;11.95;;;;;;;;;;5059238;28;20053;-82
2022/10/09 05:32:14;;;;;;;11.07;9.02;;;;;;;;;;5059106;28;20053;-80
2022/10/09 05:34:41;;;;;;;14.70;9.85;;;;;;;;;;5057928;28;20056;-82
2022/10/09 05:37:08;;;;;;;7.32;6.18;;;;;;;;;;5057216;28;20049;-82
2022/10/09 05:39:37;;;;;;;7.47;6.45;;;;;;;;;;5056103;28;20055;-82
2022/10/09 05:42:04;;;;;;;6.60;5.10;;;;;;;;;;5057651;28;20061;-82
2022/10/09 05:44:31;;;;;;;13.98;10.10;;;;;;;;;;5055763;28;20128;-83
2022/10/09 05:46:58;;;;;;;15.10;10.68;;;;;;;;;;5056166;28;20143;-83
2022/10/09 05:49:25;;;;;;;13.27;8.60;;;;;;;;;;5055408;28;20052;-81
2022/10/09 05:51:54;;;;;;;10.70;6.30;;;;;;;;;;5056105;28;20048;-81
2022/10/09 05:54:21;;;;;;;5.40;4.60;;;;;;;;;;5056339;28;20049;-82
2022/10/09 05:56:48;;;;;;;10.45;5.10;;;;;;;;;;5056367;28;20041;-82
2022/10/09 05:59:18;;;;;;;7.20;5.82;;;;;;;;;;5056694;28;20044;-82
2022/10/09 06:01:50;;;;;;;7.25;5.63;;;;;;;;;;5054643;28;20090;-81
2022/10/09 06:04:19;;;;;;;5.85;5.07;;;;;;;;;;5056091;28;20525;-82
2022/10/09 06:06:47;;;;;;;8.80;5.75;;;;;;;;;;5054417;28;20056;-81
2022/10/09 06:09:15;;;;;;;9.18;6.43;;;;;;;;;;5055497;28;20470;-82
2022/10/09 06:11:43;;;;;;;6.57;5.97;;;;;;;;;;5054125;28;20059;-81
2022/10/09 06:14:11;;;;;;;12.73;7.25;;;;;;;;;;5054775;28;20509;-80
2022/10/09 06:16:40;;;;;;;7.80;6.65;;;;;;;;;;5053370;28;20045;-81
2022/10/09 06:19:08;;;;;;;8.70;7.57;;;;;;;;;;5053614;28;20049;-82
2022/10/09 06:21:35;;;;;;;8.40;6.13;;;;;;;;;;5054257;28;20052;-81
2022/10/09 06:24:03;;;;;;;7.65;6.80;;;;;;;;;;5054406;28;20171;-82
2022/10/09 06:26:31;;;;;;;9.18;7.40;;;;;;;;;;5053755;28;20056;-81
2022/10/09 06:28:59;;;;;;;11.00;6.47;;;;;;;;;;5052910;28;20053;-82
2022/10/09 06:31:28;;;;;;;11.18;6.65;;;;;;;;;;5053074;28;20047;-81
2022/10/09 06:33:57;;;;;;;11.75;7.20;;;;;;;;;;5052431;28;20533;-81
2022/10/09 06:36:26;;;;;;;7.15;5.78;;;;;;;;;;5052585;28;20056;-81
2022/10/09 06:38:53;;;;;;;7.45;6.75;;;;;;;;;;5052345;28;20415;-81
2022/10/09 06:41:22;;;;;;;5.45;5.00;;;;;;;;;;5052373;28;20415;-81
2022/10/09 06:44:00;;;;;;;9.88;5.95;;;;;;;;;;5052577;28;20071;-82
2022/10/09 06:46:29;;;;;;;6.40;5.10;;;;;;;;;;5052256;28;20496;-82
2022/10/09 06:48:58;;;;;;;6.00;5.50;;;;;;;;;;5053473;28;20135;-82
2022/10/09 06:51:26;;;;;;;6.93;6.22;;;;;;;;;;5053210;28;20073;-82
2022/10/09 06:53:55;;;;;;;9.50;6.30;;;;;;;;;;5051884;28;20589;-80
2022/10/09 06:56:23;;;;;;;7.45;6.30;;;;;;;;;;5052989;28;20107;-81
2022/10/09 06:58:50;;;;;;;10.93;7.45;;;;;;;;;;5051886;28;20060;-81
2022/10/09 07:01:20;;;;;;;11.32;7.07;;;;;;;;;;5051880;28;20106;-81
2022/10/09 07:03:51;;;;;;;8.50;6.63;;;;;;;;;;5053371;28;20462;-82
2022/10/09 07:06:23;;;;;;;12.98;7.43;;;;;;;;;;5053103;28;20552;-82
2022/10/09 07:08:52;;;;;;;13.70;10.32;;;;;;;;;;5053916;28;20055;-82
2022/10/09 07:11:20;;;;;;;23.67;14.95;;;;;;;;;;5055341;28;20132;-81
2022/10/09 07:13:48;;;;;;;30.98;22.60;;;;;;;;;;5055322;28;20518;-81
2022/10/09 07:16:20;;;;;;;20.55;14.18;;;;;;;;;;5055839;28;20139;-81
2022/10/09 07:18:47;;;;;;;20.98;13.98;;;;;;;;;;5054990;28;20051;-82
2022/10/09 07:21:15;;;;;;;19.20;10.25;;;;;;;;;;5054280;28;20049;-81
2022/10/09 07:23:42;;;;;;;26.13;14.35;;;;;;;;;;5053638;28;20137;-81
2022/10/09 07:26:13;;;;;;;13.40;10.25;;;;;;;;;;5052978;28;20045;-82
2022/10/09 07:28:41;;;;;;;7.40;6.45;;;;;;;;;;5053293;28;20080;-82
2022/10/09 07:31:08;;;;;;;5.38;4.50;;;;;;;;;;5053823;28;20056;-80
2022/10/09 07:33:36;;;;;;;9.43;3.83;;;;;;;;;;5052513;28;20053;-81
2022/10/09 07:36:04;;;;;;;3.70;3.47;;;;;;;;;;5053279;28;20519;-81
2022/10/09 07:38:31;;;;;;;3.28;2.92;;;;;;;;;;5052030;28;20045;-82
2022/10/09 07:41:01;;;;;;;6.13;3.45;;;;;;;;;;5053261;28;20515;-82
2022/10/09 07:43:29;;;;;;;6.45;4.40;;;;;;;;;;5052229;28;20051;-82
2022/10/09 07:46:03;;;;;;;18.42;4.78;;;;;;;;;;5053354;28;20537;-81
2022/10/09 07:48:30;;;;;;;6.28;3.70;;;;;;;;;;5052208;28;20053;-81
2022/10/09 07:50:57;;;;;;;5.25;2.50;;;;;;;;;;5051613;28;20184;-82
2022/10/09 07:53:24;;;;;;;11.60;2.95;;;;;;;;;;5051992;28;20515;-81
2022/10/09 07:55:52;;;;;;;47.60;30.08;;;;;;;;;;5053072;28;20053;-83
2022/10/09 07:58:19;;;;;;;19.08;5.45;;;;;;;;;;5052469;28;20059;-81
2022/10/09 08:00:46;;;;;;;23.88;11.80;;;;;;;;;;5052897;28;20049;-82
2022/10/09 08:03:13;;;;;;;18.45;11.30;;;;;;;;;;5051367;28;20049;-82
2022/10/09 08:05:40;;;;;;;31.42;19.15;;;;;;;;;;5052580;28;20045;-82
2022/10/09 08:08:07;;;;;;;51.70;30.48;;;;;;;;;;5051376;28;20061;-82
2022/10/09 08:10:34;;;;;;;9.02;2.55;;;;;;;;;;5051375;28;20049;-81
2022/10/09 08:13:01;;;;;;;29.73;17.02;;;;;;;;;;5051644;28;20056;-82
2022/10/09 08:15:28;;;;;;;11.57;5.78;;;;;;;;;;5052262;28;20053;-82
2022/10/09 08:17:56;;;;;;;20.85;8.23;;;;;;;;;;5053644;28;20049;-82
2022/10/09 08:20:23;;;;;;;36.25;15.95;;;;;;;;;;5055445;28;20052;-81
2022/10/09 08:22:50;;;;;;;9.40;3.40;;;;;;;;;;5055852;28;20041;-82
2022/10/09 08:25:18;;;;;;;54.55;22.40;;;;;;;;;;5055081;28;20060;-83
2022/10/09 08:27:45;;;;;;;31.55;12.60;;;;;;;;;;5055772;28;20081;-83
2022/10/09 08:30:12;;;;;;;76.53;31.73;;;;;;;;;;5055318;28;20056;-83
2022/10/09 08:32:39;;;;;;;59.15;21.20;;;;;;;;;;5055518;28;20048;-83
2022/10/09 08:35:07;;;;;;;29.83;9.60;;;;;;;;;;5055135;28;20132;-83
2022/10/09 08:37:34;;;;;;;53.35;18.75;;;;;;;;;;5056271;28;20431;-81
2022/10/09 08:40:01;;;;;;;164.27;61.28;;;;;;;;;;5055175;28;20115;-82
2022/10/09 08:42:39;;;;;;;102.13;42.60;;;;;;;;;;5055002;28;20084;-83
2022/10/09 08:45:12;;;;;;;40.95;15.75;;;;;;;;;;5054853;28;20048;-83
2022/10/09 08:47:40;;;;;;;;;;;;;;;;;;5055536;28;20135;-84
2022/10/09 08:50:12;;;;;;;14.35;5.18;;;;;;;;;;5055258;28;19921;-83
2022/10/09 08:52:47;;;;;;;19.55;5.95;;;;;;;;;;5056394;28;20061;-83
2022/10/09 08:55:22;;;;;;;19.42;5.60;;;;;;;;;;5054988;28;20515;-83
2022/10/09 08:57:50;;;;;;;13.23;3.78;;;;;;;;;;5056660;28;20481;-83
2022/10/09 09:00:19;;;;;;;14.15;3.65;;;;;;;;;;5056312;28;20049;-83
2022/10/09 09:02:53;;;;;;;15.10;4.07;;;;;;;;;;5056344;28;20494;-83
2022/10/09 09:05:32;;;;;;;17.98;4.85;;;;;;;;;;5055014;28;20048;-83
2022/10/09 09:08:15;;;;;;;17.52;3.83;;;;;;;;;;5054869;28;20053;-84
2022/10/09 09:10:46;;;;;;;9.38;3.35;;;;;;;;;;5055755;28;20083;-84
2022/10/09 09:13:37;;;;;;;6.60;2.63;;;;;;;;;;5056065;28;20060;-83
2022/10/09 09:16:11;;;;;;;3.67;2.08;;;;;;;;;;5057045;28;20482;-84
2022/10/09 09:18:44;;;;;;;8.68;2.55;;;;;;;;;;5055247;28;20041;-84
2022/10/09 09:21:17;;;;;;;6.90;2.72;;;;;;;;;;5055272;28;20049;-84
2022/10/09 09:23:47;;;;;;;5.30;2.25;;;;;;;;;;5056231;28;20079;-84
2022/10/09 09:26:19;;;;;;;6.50;2.17;;;;;;;;;;5055708;28;20041;-83
2022/10/09 09:28:48;;;;;;;8.00;2.10;;;;;;;;;;5054704;28;20496;-84
2022/10/09 09:31:18;;;;;;;3.95;1.50;;;;;;;;;;5055577;28;20112;-84
2022/10/09 09:33:57;;;;;;;6.50;1.98;;;;;;;;;;5057013;28;20049;-84
2022/10/09 09:36:26;;;;;;;6.00;1.80;;;;;;;;;;5056599;28;20059;-84
2022/10/09 09:38:53;;;;;;;3.85;1.40;;;;;;;;;;5055794;28;20045;-84
2022/10/09 09:41:41;;;;;;;3.35;1.60;;;;;;;;;;5056892;28;20052;-86
2022/10/09 09:44:13;;;;;;;4.65;1.80;;;;;;;;;;5057277;28;20049;-85
2022/10/09 09:46:41;;;;;;;3.65;1.55;;;;;;;;;;5055182;28;20049;-85
2022/10/09 09:49:34;;;;;;;2.63;1.30;;;;;;;;;;5055961;28;20056;-84
2022/10/09 09:52:02;;;;;;;1.90;1.15;;;;;;;;;;5052124;28;20067;-84
2022/10/09 09:54:29;;;;;;;2.03;1.40;;;;;;;;;;5055799;28;20088;-86
2022/10/09 09:56:58;;;;;;;3.42;1.00;;;;;;;;;;5055141;28;20499;-85
2022/10/09 09:59:41;;;;;;;2.55;1.10;;;;;;;;;;5060700;28;20080;-85
2022/10/09 10:02:14;;;;;;;2.00;1.05;;;;;;;;;;5065120;28;20040;-85
2022/10/09 10:04:57;;;;;;;2.53;1.20;;;;;;;;;;5065270;28;20049;-85
2022/10/09 10:07:35;;;;;;;2.43;1.30;;;;;;;;;;5062756;28;20049;-85
2022/10/09 10:10:20;;;;;;;2.00;1.13;;;;;;;;;;5045174;22;20068;-88
2022/10/09 10:12:51;;;;;;;1.95;0.93;;;;;;;;;;5035186;28;20053;-88
2022/10/09 10:15:26;;;;;;;1.83;1.02;;;;;;;;;;5035091;28;20391;-88
2022/10/09 10:18:07;;;;;;;2.38;0.75;;;;;;;;;;5034947;28;20501;-88
2022/10/09 10:20:54;;;;;;;5.15;0.90;;;;;;;;;;5050565;28;20437;-88
2022/10/09 10:23:31;;;;;;;2.72;1.08;;;;;;;;;;5050483;28;20065;-88
2022/10/09 10:26:00;;;;;;;3.35;0.98;;;;;;;;;;5050368;28;20041;-87
2022/10/09 10:28:59;;;;;;;4.25;1.02;;;;;;;;;;5049925;28;20133;-88
2022/10/09 10:31:53;;;;;;;2.85;1.00;;;;;;;;;;5002187;28;20052;-88
2022/10/09 10:34:29;;;;;;;1.70;0.83;;;;;;;;;;5031289;28;20068;-88
2022/10/09 10:37:01;;;;;;;1.13;0.70;;;;;;;;;;5050148;28;20851;-89
2022/10/09 10:39:34;;;;;;;3.63;0.80;;;;;;;;;;5048879;28;20460;-89
2022/10/09 10:42:02;;;;;;;3.13;0.93;;;;;;;;;;5050499;28;20395;-87
2022/10/09 10:44:32;;;;;;;2.55;0.80;;;;;;;;;;5050066;28;20053;-89
2022/10/09 10:47:03;;;;;;;2.10;0.90;;;;;;;;;;5034626;28;20413;-88
2022/10/09 10:49:30;;;;;;;2.38;0.88;;;;;;;;;;5050495;28;20064;-89
2022/10/09 10:52:12;;;;;;;2.85;0.80;;;;;;;;;;5051149;28;20481;-90
2022/10/09 10:54:42;;;;;;;2.90;0.70;;;;;;;;;;5051693;28;20049;-91
2022/10/09 10:57:21;;;;;;;2.35;0.75;;;;;;;;;;5036099;28;20045;-87
2022/10/09 11:00:12;;;;;;;2.45;0.70;;;;;;;;;;5051977;28;20390;-92
2022/10/09 11:02:58;;;;;;;2.65;0.73;;;;;;;;;;5048889;28;20052;-89
2022/10/09 11:05:42;;;;;;;5.00;0.90;;;;;;;;;;5034413;28;20470;-89
2022/10/09 11:08:13;;;;;;;3.83;0.90;;;;;;;;;;5050411;28;20045;-86
2022/10/09 11:10:52;;;;;;;2.83;0.70;;;;;;;;;;5035077;28;20056;-92
2022/10/09 11:13:22;;;;;;;2.10;0.50;;;;;;;;;;5050992;28;20054;-91
2022/10/09 11:16:08;;;;;;;2.33;0.70;;;;;;;;;;5050919;28;20418;-89
2022/10/09 11:18:52;;;;;;;1.92;0.60;;;;;;;;;;5049730;28;20129;-86
2022/10/09 11:21:34;;;;;;;2.42;0.68;;;;;;;;;;5050916;28;20045;-89
2022/10/09 11:24:13;;;;;;;1.02;0.50;;;;;;;;;;5034753;28;20053;-88
2022/10/09 11:27:07;;;;;;;2.90;0.60;;;;;;;;;;5051777;28;20137;-94
2022/10/09 11:29:43;;;;;;;2.35;0.90;;;;;;;;;;5032567;28;20111;-93
2022/10/09 11:32:14;;;;;;;7.07;6.38;;;;;;;;;;5035643;28;20494;-91
2022/10/09 11:34:44;;;;;;;49.65;31.85;;;;;;;;;;5034183;28;20165;-87
2022/10/09 11:37:17;;;;;;;3.78;3.40;;;;;;;;;;5049674;28;20415;-89
2022/10/09 11:39:45;;;;;;;4.13;3.80;;;;;;;;;;5050142;28;20056;-88
2022/10/09 11:42:13;;;;;;;4.18;2.15;;;;;;;;;;5050953;28;20060;-89
2022/10/09 11:44:46;;;;;;;1.10;1.00;;;;;;;;;;5051804;28;20410;-90
2022/10/09 11:47:13;;;;;;;2.30;1.70;;;;;;;;;;5050437;28;20049;-89
2022/10/09 11:49:47;;;;;;;2.45;0.80;;;;;;;;;;5049768;28;20516;-89
2022/10/09 11:52:20;;;;;;;0.57;0.50;;;;;;;;;;5049340;28;20075;-89
2022/10/09 11:54:47;;;;;;;;;;;;;;;;;;5051560;28;20053;-89
2022/10/09 11:57:14;;;;;;;2.17;0.88;;;;;;;;;;5033815;28;20369;-90
2022/10/09 11:59:42;;;;;;;2.80;0.80;;;;;;;;;;5049813;28;20053;-90
2022/10/09 12:02:15;;;;;;;2.10;0.60;;;;;;;;;;5049374;28;20072;-89
2022/10/09 12:04:42;;;;;;;5.07;1.60;;;;;;;;;;5048949;28;20080;-89
2022/10/09 12:07:32;;;;;;;2.63;0.63;;;;;;;;;;5048021;28;20050;-91
2022/10/09 12:10:19;;;;;;;4.45;0.90;;;;;;;;;;5049542;28;20065;-89
2022/10/09 12:12:55;;;;;;;3.20;0.95;;;;;;;;;;5049364;28;20042;-89
2022/10/09 12:15:35;;;;;;;3.53;1.08;;;;;;;;;;5050075;28;20497;-90
2022/10/09 12:18:12;;;;;;;0.50;0.50;;;;;;;;;;5049428;28;20045;-89
2022/10/09 12:20:40;;;;;;;1.05;0.57;;;;;;;;;;5049249;28;20152;-92
2022/10/09 12:23:09;;;;;;;0.80;0.60;;;;;;;;;;5049559;28;20046;-90
2022/10/09 12:25:54;;;;;;;2.75;0.50;;;;;;;;;;5046719;28;20501;-89
2022/10/09 12:28:35;;;;;;;1.48;0.70;;;;;;;;;;5049045;28;20049;-91
2022/10/09 12:31:03;;;;;;;1.05;0.80;;;;;;;;;;5049492;28;20060;-95
2022/10/09 12:33:37;;;;;;;1.80;0.80;;;;;;;;;;5050044;28;20057;-92
2022/10/09 12:36:12;;;;;;;2.97;0.88;;;;;;;;;;5049122;28;20056;-90
2022/10/09 12:38:39;;;;;;;1.45;0.90;;;;;;;;;;5048847;28;20060;-90
2022/10/09 12:41:13;;;;;;;4.38;0.80;;;;;;;;;;5049100;28;20413;-89
2022/10/09 12:43:46;;;;;;;3.05;0.68;;;;;;;;;;5048101;28;20488;-90
2022/10/09 12:46:13;;;;;;;2.50;0.82;;;;;;;;;;5048573;28;20132;-90
2022/10/09 12:48:42;;;;;;;1.23;0.50;;;;;;;;;;5049970;28;20050;-90
2022/10/09 12:51:17;;;;;;;2.40;1.10;;;;;;;;;;5048981;28;20057;-92
2022/10/09 12:53:48;;;;;;;2.60;0.63;;;;;;;;;;5048541;28;20055;-89
2022/10/09 12:56:18;;;;;;;2.38;0.80;;;;;;;;;;5048405;28;20103;-91
2022/10/09 12:58:45;;;;;;;1.30;0.90;;;;;;;;;;5048707;28;20056;-90
2022/10/09 13:01:13;;;;;;;1.73;0.60;;;;;;;;;;5048910;28;20506;-92
2022/10/09 13:03:43;;;;;;;3.08;0.82;;;;;;;;;;5051043;28;20095;-93
2022/10/09 13:06:15;;;;;;;2.05;0.80;;;;;;;;;;5035972;28;20049;-91
2022/10/09 13:08:43;;;;;;;2.03;0.60;;;;;;;;;;5051847;28;20057;-90
2022/10/09 13:11:11;;;;;;;3.28;0.55;;;;;;;;;;5052102;28;20511;-89
2022/10/09 13:13:39;;;;;;;2.67;0.80;;;;;;;;;;5036644;28;20053;-90
2022/10/09 13:16:09;;;;;;;1.52;0.50;;;;;;;;;;5051982;28;20049;-91
2022/10/09 13:18:37;;;;;;;1.95;0.82;;;;;;;;;;5052059;28;20060;-89
2022/10/09 13:21:19;;;;;;;1.45;0.70;;;;;;;;;;5051990;28;20099;-88
2022/10/09 13:23:46;;;;;;;1.92;0.77;;;;;;;;;;5052118;28;20064;-89
2022/10/09 13:26:27;;;;;;;3.40;0.95;;;;;;;;;;5051635;28;20053;-90
2022/10/09 13:28:56;;;;;;;2.72;0.57;;;;;;;;;;5051768;28;20045;-93
2022/10/09 13:31:23;;;;;;;3.42;0.82;;;;;;;;;;5051987;28;20088;-90
2022/10/09 13:33:50;;;;;;;0.93;0.70;;;;;;;;;;5051847;28;20060;-91
2022/10/09 13:36:18;;;;;;;1.15;0.50;;;;;;;;;;5051928;28;20056;-90
2022/10/09 13:38:46;;;;;;;1.75;0.55;;;;;;;;;;5051741;28;20061;-91
2022/10/09 13:41:19;;;;;;;1.35;0.40;;;;;;;;;;5052219;28;20049;-89
2022/10/09 13:43:47;;;;;;;2.40;0.30;;;;;;;;;;5051526;28;20057;-89
2022/10/09 13:46:15;;;;;;;3.17;0.50;;;;;;;;;;5051413;28;20041;-90
2022/10/09 13:48:42;;;;;;;2.17;0.40;;;;;;;;;;5051332;28;20045;-91
2022/10/09 13:51:10;;;;;;;1.58;0.40;;;;;;;;;;5051392;28;20046;-87
2022/10/09 13:53:37;;;;;;;3.65;0.82;;;;;;;;;;5051236;28;20057;-90
2022/10/09 13:56:07;;;;;;;2.25;0.40;;;;;;;;;;5051484;28;20056;-94
2022/10/09 13:58:35;;;;;;;1.75;0.50;;;;;;;;;;5051185;28;20520;-88
2022/10/09 14:01:02;;;;;;;4.10;0.60;;;;;;;;;;5050875;28;20062;-89
2022/10/09 14:03:29;;;;;;;3.20;0.75;;;;;;;;;;5050861;28;20049;-91
2022/10/09 14:06:02;;;;;;;1.10;0.60;;;;;;;;;;5050994;28;20560;-88
2022/10/09 14:08:30;;;;;;;1.50;0.50;;;;;;;;;;5050763;28;20045;-89
2022/10/09 14:11:00;;;;;;;1.30;0.32;;;;;;;;;;5050790;28;20108;-88
2022/10/09 14:13:28;;;;;;;1.27;0.63;;;;;;;;;;5050403;28;20405;-90
2022/10/09 14:15:55;;;;;;;0.93;0.50;;;;;;;;;;5050952;28;20056;-88
2022/10/09 14:18:22;;;;;;;1.25;0.57;;;;;;;;;;5050649;28;20059;-88
2022/10/09 14:20:49;;;;;;;3.08;0.52;;;;;;;;;;5050712;28;20502;-88
2022/10/09 14:23:17;;;;;;;2.88;0.68;;;;;;;;;;5050542;28;20494;-88
2022/10/09 14:25:44;;;;;;;1.23;0.60;;;;;;;;;;5050512;28;20057;-89
2022/10/09 14:28:11;;;;;;;3.10;0.88;;;;;;;;;;5050161;28;20050;-88
2022/10/09 14:30:42;;;;;;;1.25;0.70;;;;;;;;;;5050279;28;20053;-89
2022/10/09 14:33:11;;;;;;;8.63;0.70;;;;;;;;;;5050476;28;20050;-90
2022/10/09 14:35:38;;;;;;;0.95;0.60;;;;;;;;;;5051132;28;20481;-90
2022/10/09 14:38:05;;;;;;;1.58;0.70;;;;;;;;;;5050255;28;20049;-89
2022/10/09 14:40:32;;;;;;;1.75;0.65;;;;;;;;;;5050086;28;20119;-89
2022/10/09 14:42:59;;;;;;;3.15;0.70;;;;;;;;;;5050261;28;20045;-89
2022/10/09 14:45:27;;;;;;;2.75;0.85;;;;;;;;;;5050340;28;20068;-88
2022/10/09 14:47:54;;;;;;;2.28;0.50;;;;;;;;;;5050142;28;20053;-89
2022/10/09 14:50:22;;;;;;;1.45;0.80;;;;;;;;;;5050048;28;20413;-90
2022/10/09 14:52:49;;;;;;;3.65;0.68;;;;;;;;;;5049583;28;20045;-88
2022/10/09 14:55:16;;;;;;;2.78;0.60;;;;;;;;;;5049723;28;20049;-89
2022/10/09 14:57:44;;;;;;;2.15;0.60;;;;;;;;;;5049655;28;20073;-89